Time,TemperatureF,DewpointF,PressureIn,WindDirection,WindDirectionDegrees,WindSpeedMPH,WindSpeedGustMPH,Humidity,HourlyPrecipIn,Conditions,Clouds,dailyrainin,SoftwareType,DateUTC
2013-03-15 00:00:00,-999.0,-99.9,29.95,North,-999,-999.0,-999.0,-999,-99.99,,,0.00,weatherlink.com 1.10,2013-03-15 04:00:00,
2013-03-15 00:15:00,-999.0,-99.9,29.94,North,-999,-999.0,-999.0,-999,-99.99,,,0.00,weatherlink.com 1.10,2013-03-15 04:15:00,
2013-03-15 00:30:00,-999.0,-99.9,29.93,North,-999,-999.0,-999.0,-999,-99.99,,,0.00,weatherlink.com 1.10,2013-03-15 04:30:00,
2013-03-15 00:45:00,-999.0,-99.9,29.91,North,-999,-999.0,-999.0,-999,-99.99,,,0.00,weatherlink.com 1.10,2013-03-15 04:45:00,
2013-03-15 01:00:00,-999.0,-99.9,29.90,North,-999,-999.0,-999.0,-999,-99.99,,,0.00,weatherlink.com 1.10,2013-03-15 05:00:00,
2013-03-15 01:15:00,-999.0,-99.9,29.89,North,-999,-999.0,-999.0,-999,-99.99,,,0.00,weatherlink.com 1.10,2013-03-15 05:15:00,
2013-03-15 01:30:00,-999.0,-99.9,29.88,North,-999,-999.0,-999.0,-999,-99.99,,,0.00,weatherlink.com 1.10,2013-03-15 05:30:00,
2013-03-15 01:46:00,-999.0,-99.9,29.88,North,-999,-999.0,-999.0,-999,-99.99,,,0.00,weatherlink.com 1.10,2013-03-15 05:46:00,
2013-03-15 02:01:00,-999.0,-99.9,29.87,North,-999,-999.0,-999.0,-999,-99.99,,,0.00,weatherlink.com 1.10,2013-03-15 06:01:00,
2013-03-15 02:31:00,-999.0,-99.9,29.86,North,-999,-999.0,-999.0,-999,-99.99,,,0.00,weatherlink.com 1.10,2013-03-15 06:31:00,
2013-03-15 03:01:00,-999.0,-99.9,29.84,North,-999,-999.0,-999.0,-999,-99.99,,,0.00,weatherlink.com 1.10,2013-03-15 07:01:00,
2013-03-15 03:16:00,-999.0,-99.9,29.84,North,-999,-999.0,-999.0,-999,-99.99,,,0.00,weatherlink.com 1.10,2013-03-15 07:16:00,
2013-03-15 03:31:00,-999.0,-99.9,29.84,North,-999,-999.0,-999.0,-999,-99.99,,,0.00,weatherlink.com 1.10,2013-03-15 07:31:00,
2013-03-15 03:46:00,-999.0,-99.9,29.83,North,-999,-999.0,-999.0,-999,-99.99,,,0.00,weatherlink.com 1.10,2013-03-15 07:46:00,
2013-03-15 04:01:00,-999.0,-99.9,29.82,North,-999,-999.0,-999.0,-999,-99.99,,,0.00,weatherlink.com 1.10,2013-03-15 08:01:00,
2013-03-15 04:16:00,-999.0,-99.9,29.82,North,-999,-999.0,-999.0,-999,-99.99,,,0.00,weatherlink.com 1.10,2013-03-15 08:16:00,
2013-03-15 04:31:00,-999.0,-99.9,29.82,North,-999,-999.0,-999.0,-999,-99.99,,,0.00,weatherlink.com 1.10,2013-03-15 08:31:00,
2013-03-15 04:46:00,-999.0,-99.9,29.82,North,-999,-999.0,-999.0,-999,-99.99,,,0.00,weatherlink.com 1.10,2013-03-15 08:46:00,
2013-03-15 05:01:00,-999.0,-99.9,29.81,North,-999,-999.0,-999.0,-999,-99.99,,,0.00,weatherlink.com 1.10,2013-03-15 09:01:00,
2013-03-15 05:17:00,-999.0,-99.9,29.81,North,-999,-999.0,-999.0,-999,-99.99,,,0.00,weatherlink.com 1.10,2013-03-15 09:17:00,
2013-03-15 05:32:00,-999.0,-99.9,29.81,North,-999,-999.0,-999.0,-999,-99.99,,,0.00,weatherlink.com 1.10,2013-03-15 09:32:00,
2013-03-15 05:47:00,-999.0,-99.9,29.82,North,-999,-999.0,-999.0,-999,-99.99,,,0.00,weatherlink.com 1.10,2013-03-15 09:47:00,
2013-03-15 06:02:00,-999.0,-99.9,29.82,North,-999,-999.0,-999.0,-999,-99.99,,,0.00,weatherlink.com 1.10,2013-03-15 10:02:00,
2013-03-15 06:17:00,-999.0,-99.9,29.82,North,-999,-999.0,-999.0,-999,-99.99,,,0.00,weatherlink.com 1.10,2013-03-15 10:17:00,
2013-03-15 06:32:00,-999.0,-99.9,29.82,North,-999,-999.0,-999.0,-999,-99.99,,,0.00,weatherlink.com 1.10,2013-03-15 10:32:00,
2013-03-15 06:47:00,-999.0,-99.9,29.83,North,-999,-999.0,-999.0,-999,-99.99,,,0.00,weatherlink.com 1.10,2013-03-15 10:47:00,
2013-03-15 07:02:00,-999.0,-99.9,29.84,North,-999,-999.0,-999.0,-999,-99.99,,,0.00,weatherlink.com 1.10,2013-03-15 11:02:00,
2013-03-15 07:17:00,-999.0,-99.9,29.85,North,-999,-999.0,-999.0,-999,-99.99,,,0.00,weatherlink.com 1.10,2013-03-15 11:17:00,
2013-03-15 07:32:00,-999.0,-99.9,29.85,North,-999,-999.0,-999.0,-999,-99.99,,,0.00,weatherlink.com 1.10,2013-03-15 11:32:00,
2013-03-15 07:47:00,-999.0,-99.9,29.86,North,-999,-999.0,-999.0,-999,-99.99,,,0.00,weatherlink.com 1.10,2013-03-15 11:47:00,
2013-03-15 08:02:00,-999.0,-99.9,29.87,North,-999,-999.0,-999.0,-999,-99.99,,,0.00,weatherlink.com 1.10,2013-03-15 12:02:00,
2013-03-15 08:17:00,-999.0,-99.9,29.87,North,-999,-999.0,-999.0,-999,-99.99,,,0.00,weatherlink.com 1.10,2013-03-15 12:17:00,
2013-03-15 08:33:00,-999.0,-99.9,29.88,North,-999,-999.0,-999.0,-999,-99.99,,,0.00,weatherlink.com 1.10,2013-03-15 12:33:00,
2013-03-15 08:48:00,-999.0,-99.9,29.88,North,-999,-999.0,-999.0,-999,-99.99,,,0.00,weatherlink.com 1.10,2013-03-15 12:48:00,
2013-03-15 09:03:00,-999.0,-99.9,29.89,North,-999,-999.0,-999.0,-999,-99.99,,,0.00,weatherlink.com 1.10,2013-03-15 13:03:00,
2013-03-15 09:18:00,-999.0,-99.9,29.89,North,-999,-999.0,-999.0,-999,-99.99,,,0.00,weatherlink.com 1.10,2013-03-15 13:18:00,
2013-03-15 09:33:00,-999.0,-99.9,29.89,North,-999,-999.0,-999.0,-999,-99.99,,,0.00,weatherlink.com 1.10,2013-03-15 13:33:00,
2013-03-15 09:48:00,-999.0,-99.9,29.89,North,-999,-999.0,-999.0,-999,-99.99,,,0.00,weatherlink.com 1.10,2013-03-15 13:48:00,
2013-03-15 10:03:00,27.6,22.0,29.89,WNW,296,2.0,-999.0,78,-99.99,,,0.00,weatherlink.com 1.10,2013-03-15 14:03:00,
2013-03-15 10:18:00,27.5,22.0,29.89,WNW,296,6.0,-999.0,80,-99.99,,,0.00,weatherlink.com 1.10,2013-03-15 14:18:00,
2013-03-15 10:33:00,27.7,22.0,29.89,WNW,294,11.0,-999.0,79,-99.99,,,0.00,weatherlink.com 1.10,2013-03-15 14:33:00,
2013-03-15 10:48:00,28.0,22.0,29.89,North,349,6.0,-999.0,77,-99.99,,,0.00,weatherlink.com 1.10,2013-03-15 14:48:00,
2013-03-15 11:03:00,28.9,22.0,29.89,North,360,1.0,-999.0,76,-99.99,,,0.00,weatherlink.com 1.10,2013-03-15 15:03:00,
2013-03-15 11:18:00,29.4,22.0,29.89,NNE,13,5.0,-999.0,74,-99.99,,,0.00,weatherlink.com 1.10,2013-03-15 15:18:00,
2013-03-15 11:33:00,29.2,21.0,29.89,NW,325,0.0,-999.0,72,-99.99,,,0.00,weatherlink.com 1.10,2013-03-15 15:33:00,
2013-03-15 11:48:00,29.2,22.0,29.89,WNW,298,3.0,-999.0,73,-99.99,,,0.00,weatherlink.com 1.10,2013-03-15 15:48:00,
2013-03-15 12:06:00,29.9,20.0,29.89,WNW,302,5.0,-999.0,68,-99.99,,,0.00,weatherlink.com 1.10,2013-03-15 16:06:00,
2013-03-15 12:18:00,29.8,21.0,29.88,NW,313,6.0,-999.0,70,-99.99,,,0.00,weatherlink.com 1.10,2013-03-15 16:18:00,
2013-03-15 12:33:00,29.2,22.0,29.89,WNW,302,0.0,-999.0,73,-99.99,,,0.00,weatherlink.com 1.10,2013-03-15 16:33:00,
2013-03-15 12:48:00,29.8,22.0,29.88,NNW,338,1.0,-999.0,72,-99.99,,,0.00,weatherlink.com 1.10,2013-03-15 16:48:00,
2013-03-15 13:03:00,29.4,23.0,29.89,NNE,18,3.0,-999.0,77,-99.99,,,0.00,weatherlink.com 1.10,2013-03-15 17:03:00,
2013-03-15 13:18:00,28.2,23.0,29.89,North,5,2.0,-999.0,81,-99.99,,,0.00,weatherlink.com 1.10,2013-03-15 17:18:00,
2013-03-15 13:33:00,29.5,24.0,29.89,NW,313,1.0,-999.0,79,-99.99,,,0.00,weatherlink.com 1.10,2013-03-15 17:33:00,
2013-03-15 13:48:00,30.4,23.0,29.89,NW,304,0.0,-999.0,73,-99.99,,,0.00,weatherlink.com 1.10,2013-03-15 17:48:00,
2013-03-15 14:03:00,29.3,20.0,29.89,WNW,290,4.0,-999.0,67,-99.99,,,0.00,weatherlink.com 1.10,2013-03-15 18:03:00,
2013-03-15 14:18:00,29.6,19.0,29.89,NW,306,9.0,-999.0,65,-99.99,,,0.00,weatherlink.com 1.10,2013-03-15 18:18:00,
2013-03-15 14:33:00,28.9,19.0,29.89,WNW,286,10.0,-999.0,67,-99.99,,,0.00,weatherlink.com 1.10,2013-03-15 18:33:00,
2013-03-15 14:48:00,29.7,19.0,29.89,WNW,298,5.0,-999.0,65,-99.99,,,0.00,weatherlink.com 1.10,2013-03-15 18:48:00,
2013-03-15 15:03:00,29.8,18.0,29.89,WNW,286,4.0,-999.0,61,-99.99,,,0.00,weatherlink.com 1.10,2013-03-15 19:03:00,
2013-03-15 15:18:00,29.8,18.0,29.89,WNW,290,3.0,-999.0,62,-99.99,,,0.00,weatherlink.com 1.10,2013-03-15 19:18:00,
2013-03-15 15:33:00,30.0,17.0,29.90,WNW,286,3.0,-999.0,58,-99.99,,,0.00,weatherlink.com 1.10,2013-03-15 19:33:00,
2013-03-15 15:48:00,30.1,17.0,29.90,WNW,283,6.0,-999.0,58,-99.99,,,0.00,weatherlink.com 1.10,2013-03-15 19:48:00,
2013-03-15 16:04:00,29.0,17.0,29.90,WNW,296,6.0,-999.0,61,-99.99,,,0.00,weatherlink.com 1.10,2013-03-15 20:04:00,
2013-03-15 16:19:00,28.8,17.0,29.90,WNW,297,8.0,-999.0,61,-99.99,,,0.00,weatherlink.com 1.10,2013-03-15 20:19:00,
2013-03-15 16:34:00,28.7,18.0,29.90,WNW,292,5.0,-999.0,64,-99.99,,,0.00,weatherlink.com 1.10,2013-03-15 20:34:00,
2013-03-15 16:49:00,30.5,17.0,29.90,North,360,1.0,-999.0,58,-99.99,,,0.00,weatherlink.com 1.10,2013-03-15 20:49:00,
2013-03-15 17:04:00,30.0,15.0,29.90,WSW,254,3.0,-999.0,54,-99.99,,,0.00,weatherlink.com 1.10,2013-03-15 21:04:00,
2013-03-15 17:19:00,29.7,15.0,29.91,WNW,288,5.0,-999.0,54,-99.99,,,0.00,weatherlink.com 1.10,2013-03-15 21:19:00,
2013-03-15 17:34:00,28.4,14.0,29.91,North,355,0.0,-999.0,56,-99.99,,,0.00,weatherlink.com 1.10,2013-03-15 21:34:00,
2013-03-15 17:49:00,27.9,13.0,29.91,NNW,348,1.0,-999.0,53,-99.99,,,0.00,weatherlink.com 1.10,2013-03-15 21:49:00,
2013-03-15 18:04:00,27.1,11.0,29.91,WNW,292,3.0,-999.0,51,-99.99,,,0.00,weatherlink.com 1.10,2013-03-15 22:04:00,
2013-03-15 18:19:00,26.6,11.0,29.92,WNW,295,0.0,-999.0,52,-99.99,,,0.00,weatherlink.com 1.10,2013-03-15 22:19:00,
2013-03-15 18:34:00,26.3,12.0,29.92,NW,325,12.0,-999.0,54,-99.99,,,0.00,weatherlink.com 1.10,2013-03-15 22:34:00,
2013-03-15 18:49:00,26.7,12.0,29.92,WNW,299,1.0,-999.0,54,-99.99,,,0.00,weatherlink.com 1.10,2013-03-15 22:49:00,
2013-03-15 19:04:00,26.5,13.0,29.92,WNW,288,1.0,-999.0,56,-99.99,,,0.00,weatherlink.com 1.10,2013-03-15 23:04:00,
2013-03-15 19:19:00,25.3,13.0,29.93,NW,311,1.0,-999.0,59,-99.99,,,0.00,weatherlink.com 1.10,2013-03-15 23:19:00,
2013-03-15 19:34:00,24.7,13.0,29.93,NW,310,0.0,-999.0,61,-99.99,,,0.00,weatherlink.com 1.10,2013-03-15 23:34:00,
2013-03-15 19:49:00,-999.0,-99.9,29.94,North,-999,-999.0,-999.0,-999,-99.99,,,0.00,weatherlink.com 1.10,2013-03-15 23:49:00,
2013-03-15 20:04:00,-999.0,-99.9,29.95,North,-999,-999.0,-999.0,-999,-99.99,,,0.00,weatherlink.com 1.10,2013-03-16 00:04:00,
2013-03-15 20:19:00,-999.0,-99.9,29.94,North,-999,-999.0,-999.0,-999,-99.99,,,0.00,weatherlink.com 1.10,2013-03-16 00:19:00,
2013-03-15 20:34:00,-999.0,-99.9,29.95,North,-999,-999.0,-999.0,-999,-99.99,,,0.00,weatherlink.com 1.10,2013-03-16 00:34:00,
2013-03-15 20:49:00,-999.0,-99.9,29.95,North,-999,-999.0,-999.0,-999,-99.99,,,0.00,weatherlink.com 1.10,2013-03-16 00:49:00,
2013-03-15 21:04:00,-999.0,-99.9,29.96,North,-999,-999.0,-999.0,-999,-99.99,,,0.00,weatherlink.com 1.10,2013-03-16 01:04:00,
2013-03-15 21:19:00,-999.0,-99.9,29.96,North,-999,-999.0,-999.0,-999,-99.99,,,0.00,weatherlink.com 1.10,2013-03-16 01:19:00,
2013-03-15 21:34:00,-999.0,-99.9,29.96,North,-999,-999.0,-999.0,-999,-99.99,,,0.00,weatherlink.com 1.10,2013-03-16 01:34:00,
2013-03-15 21:49:00,-999.0,-99.9,29.96,North,-999,-999.0,-999.0,-999,-99.99,,,0.00,weatherlink.com 1.10,2013-03-16 01:49:00,
2013-03-15 22:05:00,-999.0,-99.9,29.96,North,-999,-999.0,-999.0,-999,-99.99,,,0.00,weatherlink.com 1.10,2013-03-16 02:05:00,
2013-03-15 22:20:00,-999.0,-99.9,29.96,North,-999,-999.0,-999.0,-999,-99.99,,,0.00,weatherlink.com 1.10,2013-03-16 02:20:00,
2013-03-15 22:35:00,-999.0,-99.9,29.96,North,-999,-999.0,-999.0,-999,-99.99,,,0.00,weatherlink.com 1.10,2013-03-16 02:35:00,
2013-03-15 22:50:00,-999.0,-99.9,29.96,North,-999,-999.0,-999.0,-999,-99.99,,,0.00,weatherlink.com 1.10,2013-03-16 02:50:00,
2013-03-15 23:05:00,-999.0,-99.9,29.96,North,-999,-999.0,-999.0,-999,-99.99,,,0.00,weatherlink.com 1.10,2013-03-16 03:05:00,
2013-03-15 23:20:00,-999.0,-99.9,29.96,North,-999,-999.0,-999.0,-999,-99.99,,,0.00,weatherlink.com 1.10,2013-03-16 03:20:00,
2013-03-15 23:35:00,-999.0,-99.9,29.95,North,-999,-999.0,-999.0,-999,-99.99,,,0.00,weatherlink.com 1.10,2013-03-16 03:35:00,
2013-03-15 23:50:00,-999.0,-99.9,29.95,North,-999,-999.0,-999.0,-999,-99.99,,,0.00,weatherlink.com 1.10,2013-03-16 03:50:00,